Time;durP1;ratioP1;P1;durP2;ratioP2;P2;SDS_P1;SDS_P2;PMS_P1;PMS_P2;Temp;Humidity;BMP_temperature;BMP_pressure;BME280_temperature;BME280_humidity;BME280_pressure;Samples;Min_cycle;Max_cycle;Signal;HPM_P1;HPM_P2
2023/11/25 00:01:36;;;;;;;3.17;1.30;;;4.30;76.70;;;;;;5134209;27;20229;-89
2023/11/25 00:04:03;;;;;;;3.95;1.65;;;4.30;76.90;;;;;;5134146;27;20241;-88
2023/11/25 00:06:33;;;;;;;2.47;1.40;;;4.30;76.00;;;;;;5134483;27;20188;-88
2023/11/25 00:09:00;;;;;;;3.90;1.30;;;4.30;75.60;;;;;;5134447;27;20249;-88
2023/11/25 00:11:29;;;;;;;3.95;1.30;;;4.30;74.70;;;;;;5134308;27;20219;-87
2023/11/25 00:13:56;;;;;;;3.90;1.30;;;4.30;74.20;;;;;;5134067;27;20646;-88
2023/11/25 00:16:23;;;;;;;2.20;1.20;;;4.20;73.50;;;;;;5134024;27;20308;-87
2023/11/25 00:18:52;;;;;;;3.30;1.50;;;4.20;73.40;;;;;;5133894;27;20237;-89
2023/11/25 00:21:21;;;;;;;3.10;1.40;;;4.10;73.80;;;;;;5134221;27;20557;-88
2023/11/25 00:23:48;;;;;;;3.10;1.30;;;4.00;74.20;;;;;;5136705;27;20184;-88
2023/11/25 00:26:15;;;;;;;2.85;1.27;;;4.00;74.30;;;;;;5138287;27;20196;-88
2023/11/25 00:28:44;;;;;;;3.70;1.48;;;3.90;74.10;;;;;;5137462;27;20227;-89
2023/11/25 00:31:11;;;;;;;12.23;4.85;;;3.90;74.50;;;;;;5137754;27;20203;-88
2023/11/25 00:33:38;;;;;;;4.05;1.45;;;3.80;74.70;;;;;;5137686;27;20650;-87
2023/11/25 00:36:09;;;;;;;3.65;1.00;;;3.80;74.90;;;;;;5137398;27;20220;-88
2023/11/25 00:38:38;;;;;;;3.45;1.35;;;3.90;74.80;;;;;;5138009;27;20200;-89
2023/11/25 00:41:08;;;;;;;3.53;1.35;;;3.90;74.60;;;;;;5137972;27;20219;-89
2023/11/25 00:43:36;;;;;;;2.20;1.25;;;3.90;74.70;;;;;;5137962;27;20184;-89
2023/11/25 00:46:08;;;;;;;4.32;1.10;;;3.90;74.50;;;;;;5137510;27;20224;-87
2023/11/25 00:48:38;;;;;;;2.92;1.00;;;3.90;74.50;;;;;;5137507;27;20192;-87
2023/11/25 00:51:07;;;;;;;3.47;1.20;;;4.00;74.50;;;;;;5137527;27;20695;-89
2023/11/25 00:53:34;;;;;;;8.35;1.50;;;4.00;74.20;;;;;;5137404;27;20221;-89
2023/11/25 00:56:04;;;;;;;3.08;1.35;;;4.00;74.20;;;;;;5137756;27;20219;-89
2023/11/25 00:58:33;;;;;;;5.40;2.10;;;4.00;74.50;;;;;;5137232;27;20200;-88
2023/11/25 01:01:04;;;;;;;3.90;1.13;;;4.00;74.40;;;;;;5137257;27;20271;-88
2023/11/25 01:03:32;;;;;;;4.95;1.42;;;4.10;73.90;;;;;;5137454;27;20195;-88
2023/11/25 01:06:00;;;;;;;1.90;1.00;;;4.10;73.40;;;;;;5137574;27;20330;-88
2023/11/25 01:08:29;;;;;;;2.50;1.10;;;4.10;72.70;;;;;;5137331;27;20210;-88
2023/11/25 01:10:58;;;;;;;2.20;0.90;;;4.10;72.50;;;;;;5137081;27;20188;-88
2023/11/25 01:13:25;;;;;;;3.55;0.93;;;4.00;72.10;;;;;;5137412;27;20198;-90
2023/11/25 01:15:52;;;;;;;3.65;1.25;;;4.00;71.80;;;;;;5136968;27;20184;-88
2023/11/25 01:18:19;;;;;;;3.55;2.05;;;4.00;71.50;;;;;;5137197;27;20257;-88
2023/11/25 01:20:55;;;;;;;2.28;1.10;;;4.00;72.00;;;;;;5137426;27;20598;-88
2023/11/25 01:23:22;;;;;;;3.15;1.05;;;4.00;72.00;;;;;;5137673;27;20194;-89
2023/11/25 01:25:51;;;;;;;2.08;1.10;;;4.00;71.80;;;;;;5136694;27;20669;-89
2023/11/25 01:28:21;;;;;;;5.30;1.30;;;4.00;72.40;;;;;;5136772;27;20195;-89
2023/11/25 01:30:50;;;;;;;3.75;1.20;;;4.00;73.10;;;;;;5137071;27;20219;-89
2023/11/25 01:33:17;;;;;;;4.18;1.00;;;4.00;74.20;;;;;;5136839;27;20609;-88
2023/11/25 01:35:45;;;;;;;3.85;1.00;;;4.00;74.50;;;;;;5136581;27;20656;-88
2023/11/25 01:38:14;;;;;;;3.63;1.30;;;4.00;74.70;;;;;;5136737;27;20570;-89
2023/11/25 01:40:42;;;;;;;4.18;1.80;;;4.00;75.80;;;;;;5136415;27;20188;-89
2023/11/25 01:43:16;;;;;;;2.00;0.90;;;4.00;76.80;;;;;;5136471;27;20399;-89
2023/11/25 01:45:49;;;;;;;2.10;1.00;;;4.00;77.30;;;;;;5136191;27;20231;-90
2023/11/25 01:48:16;;;;;;;2.45;1.00;;;3.90;77.70;;;;;;5136442;27;20185;-89
2023/11/25 01:50:45;;;;;;;1.80;0.90;;;3.90;77.10;;;;;;5136667;27;20635;-89
2023/11/25 01:53:15;;;;;;;1.90;0.70;;;3.90;77.10;;;;;;5136360;27;20188;-88
2023/11/25 01:55:43;;;;;;;2.03;0.95;;;3.90;76.70;;;;;;5136600;27;20247;-89
2023/11/25 01:58:12;;;;;;;2.58;1.00;;;4.00;75.90;;;;;;5136441;27;20208;-89
2023/11/25 02:00:42;;;;;;;2.10;0.70;;;4.00;75.20;;;;;;5136415;27;20248;-90
2023/11/25 02:03:09;;;;;;;2.13;0.80;;;4.00;74.70;;;;;;5136471;27;20180;-89
2023/11/25 02:05:40;;;;;;;2.85;0.80;;;3.90;74.40;;;;;;5136364;27;20262;-88
2023/11/25 02:08:11;;;;;;;1.80;0.70;;;3.90;74.00;;;;;;5136326;27;20181;-89
2023/11/25 02:10:40;;;;;;;2.53;0.70;;;3.90;73.80;;;;;;5136169;27;20183;-90
2023/11/25 02:13:08;;;;;;;1.70;0.70;;;3.90;75.20;;;;;;5136202;27;20562;-90
2023/11/25 02:15:37;;;;;;;2.00;0.80;;;3.80;74.70;;;;;;5135661;27;20196;-91
2023/11/25 02:18:05;;;;;;;2.03;0.70;;;3.80;75.10;;;;;;5136168;27;20408;-88
2023/11/25 02:20:35;;;;;;;3.28;1.20;;;3.80;74.70;;;;;;5136084;27;20188;-88
2023/11/25 02:23:04;;;;;;;2.15;0.90;;;3.70;73.50;;;;;;5136139;27;20187;-91
2023/11/25 02:25:32;;;;;;;2.67;0.90;;;3.70;73.50;;;;;;5135874;27;20188;-88
2023/11/25 02:27:59;;;;;;;2.83;0.90;;;3.60;73.10;;;;;;5135595;27;20232;-88
2023/11/25 02:30:28;;;;;;;2.80;0.90;;;3.60;73.00;;;;;;5135841;27;20611;-88
2023/11/25 02:32:57;;;;;;;2.78;0.80;;;3.50;72.40;;;;;;5135596;27;20706;-90
2023/11/25 02:35:25;;;;;;;2.10;0.90;;;3.40;72.30;;;;;;5135380;27;20200;-89
2023/11/25 02:37:54;;;;;;;5.90;1.08;;;3.40;72.50;;;;;;5135588;27;20215;-91
2023/11/25 02:40:23;;;;;;;1.90;0.60;;;3.30;72.40;;;;;;5135616;27;20219;-91
2023/11/25 02:42:55;;;;;;;2.20;0.80;;;3.20;72.00;;;;;;5135645;27;20227;-90
2023/11/25 02:45:23;;;;;;;2.22;0.70;;;3.20;72.80;;;;;;5134854;27;20306;-89
2023/11/25 02:47:51;;;;;;;1.90;0.68;;;3.20;73.30;;;;;;5135521;27;20249;-89
2023/11/25 02:50:19;;;;;;;2.92;0.82;;;3.30;73.70;;;;;;5135499;27;20241;-89
2023/11/25 02:52:47;;;;;;;3.42;1.95;;;3.30;75.10;;;;;;5135437;27;20280;-89
2023/11/25 02:55:14;;;;;;;2.13;0.70;;;3.30;75.80;;;;;;5135325;27;20346;-88
2023/11/25 02:57:45;;;;;;;1.95;0.80;;;3.30;77.30;;;;;;5134874;27;20230;-88
2023/11/25 03:00:27;;;;;;;2.50;0.90;;;3.30;78.40;;;;;;5135475;27;20193;-89
2023/11/25 03:03:00;;;;;;;2.42;1.00;;;3.40;78.80;;;;;;5135386;27;20528;-89
2023/11/25 03:05:31;;;;;;;1.98;0.70;;;3.40;79.70;;;;;;5135257;27;20215;-88
2023/11/25 03:08:00;;;;;;;1.92;0.80;;;3.40;80.60;;;;;;5135293;27;20181;-90
2023/11/25 03:10:27;;;;;;;3.05;0.70;;;3.40;81.80;;;;;;5135040;27;20527;-90
2023/11/25 03:12:56;;;;;;;2.40;0.75;;;3.30;81.30;;;;;;5134953;27;20711;-90
2023/11/25 03:15:23;;;;;;;2.20;0.95;;;3.20;80.90;;;;;;5134754;27;20231;-90
2023/11/25 03:17:51;;;;;;;2.03;0.95;;;3.20;80.60;;;;;;5134980;27;20192;-89
2023/11/25 03:20:19;;;;;;;2.33;0.75;;;3.20;80.70;;;;;;5135070;27;20248;-89
2023/11/25 03:22:49;;;;;;;2.05;0.60;;;3.20;79.70;;;;;;5135099;27;20633;-89
2023/11/25 03:25:16;;;;;;;3.00;0.80;;;3.20;78.70;;;;;;5134537;27;20730;-92
2023/11/25 03:27:43;;;;;;;1.65;0.60;;;3.20;77.60;;;;;;5134605;27;20227;-89
2023/11/25 03:30:15;;;;;;;2.42;0.68;;;3.30;77.70;;;;;;5134843;27;20192;-90
2023/11/25 03:32:43;;;;;;;1.70;0.70;;;3.20;77.50;;;;;;5134564;27;20197;-89
2023/11/25 03:35:13;;;;;;;6.50;1.30;;;3.20;76.40;;;;;;5134448;27;20204;-90
2023/11/25 03:37:41;;;;;;;1.70;0.68;;;3.20;75.60;;;;;;5134739;27;20623;-91
2023/11/25 03:40:13;;;;;;;1.67;0.63;;;3.10;75.20;;;;;;5134685;27;20241;-91
2023/11/25 03:42:40;;;;;;;2.20;1.00;;;3.00;77.00;;;;;;5134506;27;20656;-91
2023/11/25 03:45:09;;;;;;;3.35;0.80;;;2.90;78.30;;;;;;5134345;27;20314;-90
2023/11/25 03:47:38;;;;;;;2.00;0.90;;;2.80;78.30;;;;;;5134833;27;20177;-91
2023/11/25 03:50:06;;;;;;;2.15;0.85;;;2.70;78.30;;;;;;5134653;27;20188;-91
2023/11/25 03:52:33;;;;;;;2.10;0.90;;;2.70;77.70;;;;;;5134349;27;20547;-91
2023/11/25 03:55:03;;;;;;;3.13;0.80;;;2.70;76.70;;;;;;5134572;27;20611;-91
2023/11/25 03:57:30;;;;;;;2.10;0.80;;;2.70;76.90;;;;;;5135129;27;20199;-91
2023/11/25 03:59:57;;;;;;;2.83;1.10;;;2.70;76.90;;;;;;5138839;27;20309;-91
2023/11/25 04:02:25;;;;;;;1.88;0.70;;;2.80;76.50;;;;;;5138380;27;20219;-91
2023/11/25 04:04:53;;;;;;;2.17;0.85;;;2.80;76.10;;;;;;5138692;27;20220;-90
2023/11/25 04:07:20;;;;;;;2.92;0.80;;;2.80;75.70;;;;;;5138394;27;20227;-91
2023/11/25 04:09:48;;;;;;;2.40;1.10;;;2.80;75.50;;;;;;5137759;27;20196;-90
2023/11/25 04:12:15;;;;;;;3.15;1.05;;;2.80;75.20;;;;;;5138243;27;20638;-89
2023/11/25 04:14:42;;;;;;;3.45;0.90;;;2.90;74.50;;;;;;5138181;27;20241;-89
2023/11/25 04:17:09;;;;;;;2.00;0.85;;;2.90;74.30;;;;;;5138250;27;20638;-90
2023/11/25 04:19:36;;;;;;;2.22;0.90;;;2.90;74.30;;;;;;5138310;27;20208;-89
2023/11/25 04:22:11;;;;;;;2.13;0.70;;;3.00;74.50;;;;;;5138472;27;20275;-89
2023/11/25 04:24:38;;;;;;;2.00;0.80;;;3.10;74.80;;;;;;5138069;27;20175;-90
2023/11/25 04:27:06;;;;;;;2.88;0.80;;;3.10;74.40;;;;;;5137883;27;20633;-89
2023/11/25 04:29:33;;;;;;;5.30;1.30;;;3.20;73.90;;;;;;5138271;27;20188;-90
2023/11/25 04:32:02;;;;;;;2.50;0.98;;;3.20;73.70;;;;;;5137743;27;20187;-89
2023/11/25 04:34:31;;;;;;;10.93;1.02;;;3.20;74.10;;;;;;5138193;27;20233;-88
2023/11/25 04:37:00;;;;;;;2.10;0.90;;;3.20;73.90;;;;;;5138125;27;20188;-90
2023/11/25 04:39:29;;;;;;;7.65;1.20;;;3.20;73.60;;;;;;5138061;27;20208;-89
2023/11/25 04:41:56;;;;;;;2.20;1.00;;;3.20;73.80;;;;;;5138027;27;20192;-90
2023/11/25 04:44:25;;;;;;;2.88;0.93;;;3.20;73.70;;;;;;5138320;27;20192;-90
2023/11/25 04:46:52;;;;;;;2.03;1.00;;;3.20;74.10;;;;;;5138177;27;20220;-89
2023/11/25 04:49:21;;;;;;;5.40;1.00;;;3.20;72.60;;;;;;5137794;27;20547;-88
2023/11/25 04:51:49;;;;;;;3.83;1.00;;;3.10;70.90;;;;;;5137929;27;20229;-91
2023/11/25 04:54:16;;;;;;;3.08;0.85;;;3.00;69.70;;;;;;5137442;27;20196;-90
2023/11/25 04:56:45;;;;;;;2.00;0.95;;;2.90;69.10;;;;;;5137710;27;20710;-88
2023/11/25 04:59:12;;;;;;;2.30;0.95;;;2.90;68.80;;;;;;5137202;27;20673;-90
2023/11/25 05:01:39;;;;;;;2.50;0.95;;;2.80;67.60;;;;;;5137305;27;20196;-91
2023/11/25 05:04:07;;;;;;;3.72;0.98;;;2.70;68.30;;;;;;5137310;27;20194;-89
2023/11/25 05:06:34;;;;;;;6.03;0.80;;;2.70;68.50;;;;;;5137580;27;20192;-87
2023/11/25 05:09:06;;;;;;;2.28;1.00;;;2.60;68.40;;;;;;5136914;27;20200;-87
2023/11/25 05:11:37;;;;;;;1.95;0.88;;;2.60;68.50;;;;;;5136923;27;20196;-89
2023/11/25 05:14:06;;;;;;;2.58;1.02;;;2.50;68.40;;;;;;5137471;27;20192;-89
2023/11/25 05:16:37;;;;;;;2.65;1.23;;;2.50;68.70;;;;;;5137399;27;20603;-89
2023/11/25 05:19:04;;;;;;;3.28;1.00;;;2.50;68.70;;;;;;5137228;27;20196;-89
2023/11/25 05:21:37;;;;;;;3.45;0.95;;;2.50;68.70;;;;;;5136960;27;20188;-90
2023/11/25 05:24:08;;;;;;;2.40;1.00;;;2.50;68.80;;;;;;5137368;27;20221;-91
2023/11/25 05:26:35;;;;;;;2.25;1.00;;;2.50;69.10;;;;;;5136749;27;20211;-89
2023/11/25 05:29:05;;;;;;;2.00;0.82;;;2.50;69.40;;;;;;5137144;27;20261;-89
2023/11/25 05:31:33;;;;;;;2.33;0.70;;;2.50;69.40;;;;;;5136928;27;20199;-90
2023/11/25 05:34:03;;;;;;;3.17;1.02;;;2.50;69.40;;;;;;5136608;27;20724;-90
2023/11/25 05:36:30;;;;;;;2.10;0.88;;;2.50;69.30;;;;;;5136958;27;20226;-89
2023/11/25 05:39:00;;;;;;;3.75;1.20;;;2.50;69.30;;;;;;5136567;27;20216;-89
2023/11/25 05:41:28;;;;;;;2.13;0.70;;;2.60;69.40;;;;;;5136607;27;20176;-89
2023/11/25 05:43:57;;;;;;;22.92;6.85;;;2.60;69.10;;;;;;5136614;27;20192;-89
2023/11/25 05:46:29;;;;;;;2.67;1.13;;;2.60;69.00;;;;;;5136255;27;20226;-89
2023/11/25 05:48:56;;;;;;;2.45;0.98;;;2.60;68.90;;;;;;5136431;27;20630;-89
2023/11/25 05:51:32;;;;;;;1.95;1.00;;;2.70;69.10;;;;;;5136592;27;20201;-89
2023/11/25 05:53:59;;;;;;;4.85;0.90;;;2.60;69.10;;;;;;5136388;27;20618;-89
2023/11/25 05:56:27;;;;;;;2.10;0.90;;;2.70;69.10;;;;;;5136196;27;20234;-88
2023/11/25 05:58:54;;;;;;;2.80;1.05;;;2.70;69.00;;;;;;5136683;27;20212;-89
2023/11/25 06:01:21;;;;;;;2.15;0.70;;;2.70;68.80;;;;;;5136162;27;20336;-89
2023/11/25 06:03:53;;;;;;;2.22;0.95;;;2.70;68.70;;;;;;5136554;27;20196;-89
2023/11/25 06:06:22;;;;;;;2.63;1.02;;;2.70;68.20;;;;;;5136364;27;20280;-90
2023/11/25 06:08:50;;;;;;;2.80;1.20;;;2.70;68.10;;;;;;5136303;27;20195;-88
2023/11/25 06:11:21;;;;;;;3.80;2.00;;;2.70;68.40;;;;;;5136146;27;20604;-89
2023/11/25 06:13:49;;;;;;;3.75;1.42;;;2.70;69.00;;;;;;5136294;27;20185;-88
2023/11/25 06:16:17;;;;;;;8.57;1.05;;;2.70;69.40;;;;;;5136105;27;20192;-89
2023/11/25 06:18:48;;;;;;;3.20;1.10;;;2.70;68.60;;;;;;5136142;27;20196;-89
2023/11/25 06:21:17;;;;;;;3.28;1.00;;;2.70;68.50;;;;;;5134869;27;20275;-88
2023/11/25 06:23:44;;;;;;;5.45;0.85;;;2.70;68.60;;;;;;5136028;27;20551;-89
2023/11/25 06:26:11;;;;;;;2.42;0.90;;;2.70;68.10;;;;;;5135919;27;20623;-90
2023/11/25 06:28:42;;;;;;;2.38;0.80;;;2.70;68.10;;;;;;5135971;27;20584;-89
2023/11/25 06:31:21;;;;;;;3.17;0.98;;;2.70;67.10;;;;;;5135876;27;20188;-89
2023/11/25 06:33:50;;;;;;;6.60;0.90;;;2.70;66.90;;;;;;5135933;27;20225;-89
2023/11/25 06:36:18;;;;;;;2.58;1.15;;;2.70;67.30;;;;;;5135250;27;20192;-89
2023/11/25 06:38:46;;;;;;;5.47;0.93;;;2.70;67.50;;;;;;5135376;27;20227;-89
2023/11/25 06:41:13;;;;;;;6.28;1.10;;;2.70;67.70;;;;;;5135651;27;20540;-89
2023/11/25 06:43:43;;;;;;;2.15;0.75;;;2.70;67.40;;;;;;5135778;27;20249;-89
2023/11/25 06:46:14;;;;;;;9.25;2.05;;;2.70;67.00;;;;;;5135054;27;20260;-89
2023/11/25 06:48:41;;;;;;;2.03;0.80;;;2.70;66.70;;;;;;5135487;27;20536;-89
2023/11/25 06:51:11;;;;;;;6.30;1.05;;;2.70;66.60;;;;;;5135603;27;20223;-89
2023/11/25 06:53:40;;;;;;;2.35;0.85;;;2.70;67.00;;;;;;5134884;27;20184;-88
2023/11/25 06:56:10;;;;;;;5.13;0.90;;;2.70;67.10;;;;;;5135266;27;20199;-89
2023/11/25 06:58:37;;;;;;;6.70;1.30;;;2.70;66.50;;;;;;5135304;27;20521;-89
2023/11/25 07:01:05;;;;;;;5.75;1.35;;;2.70;65.80;;;;;;5134648;27;20212;-89
2023/11/25 07:03:32;;;;;;;3.58;1.27;;;2.70;65.70;;;;;;5135036;27;20287;-89
2023/11/25 07:05:59;;;;;;;2.55;0.88;;;2.70;65.70;;;;;;5134777;27;20265;-88
2023/11/25 07:08:30;;;;;;;5.55;1.75;;;2.80;66.00;;;;;;5134967;27;20192;-89
2023/11/25 07:11:04;;;;;;;9.73;2.67;;;2.70;65.80;;;;;;5134979;27;20176;-89
2023/11/25 07:13:32;;;;;;;3.45;1.20;;;2.80;66.00;;;;;;5135043;27;20172;-89
2023/11/25 07:16:04;;;;;;;2.15;0.80;;;2.70;66.20;;;;;;5134500;27;20645;-89
2023/11/25 07:18:42;;;;;;;6.68;1.10;;;2.70;66.60;;;;;;5134886;27;20180;-89
2023/11/25 07:21:11;;;;;;;2.42;1.10;;;2.80;66.60;;;;;;5134975;27;20559;-89
2023/11/25 07:23:39;;;;;;;3.03;1.27;;;2.70;66.40;;;;;;5134773;27;20196;-90
2023/11/25 07:26:10;;;;;;;3.25;1.27;;;2.80;66.60;;;;;;5134750;27;20594;-89
2023/11/25 07:28:37;;;;;;;3.55;1.00;;;2.90;66.40;;;;;;5134902;27;20594;-89
2023/11/25 07:31:06;;;;;;;3.03;1.08;;;2.90;66.00;;;;;;5134422;27;20641;-89
2023/11/25 07:33:36;;;;;;;6.97;1.42;;;3.00;66.20;;;;;;5134154;27;20650;-90
2023/11/25 07:36:04;;;;;;;3.00;1.50;;;3.10;66.30;;;;;;5134630;27;20221;-90
2023/11/25 07:38:31;;;;;;;2.70;1.20;;;3.10;65.60;;;;;;5134256;27;20188;-90
2023/11/25 07:41:00;;;;;;;4.00;1.50;;;3.20;64.50;;;;;;5134588;27;20208;-90
2023/11/25 07:43:29;;;;;;;2.40;0.90;;;3.30;64.20;;;;;;5134402;27;20272;-90
2023/11/25 07:45:57;;;;;;;5.30;1.38;;;3.30;64.30;;;;;;5134376;27;20212;-90
2023/11/25 07:48:25;;;;;;;3.38;1.15;;;3.40;63.90;;;;;;5134558;27;20199;-90
2023/11/25 07:50:52;;;;;;;3.90;1.30;;;3.50;63.90;;;;;;5134437;27;20214;-89
2023/11/25 07:53:22;;;;;;;3.05;1.20;;;3.50;62.90;;;;;;5134380;27;20233;-90
2023/11/25 07:55:50;;;;;;;3.38;1.80;;;3.60;62.90;;;;;;5134441;27;20172;-90
2023/11/25 07:58:19;;;;;;;3.17;0.95;;;3.60;62.50;;;;;;5134424;27;20317;-90
2023/11/25 08:00:50;;;;;;;5.30;1.23;;;3.60;62.10;;;;;;5134391;27;20203;-89
2023/11/25 08:03:18;;;;;;;5.35;1.60;;;3.60;62.20;;;;;;5134371;27;20231;-89
2023/11/25 08:05:47;;;;;;;3.28;1.20;;;3.60;62.20;;;;;;5134336;27;20184;-90
2023/11/25 08:08:14;;;;;;;2.90;1.25;;;3.60;61.60;;;;;;5133859;27;20188;-90
2023/11/25 08:10:42;;;;;;;3.35;1.00;;;3.70;61.70;;;;;;5134177;27;20259;-90
2023/11/25 08:13:09;;;;;;;3.40;1.42;;;3.70;62.00;;;;;;5133936;27;20184;-89
2023/11/25 08:15:36;;;;;;;4.95;1.10;;;3.70;61.30;;;;;;5133768;27;20275;-89
2023/11/25 08:18:05;;;;;;;2.55;1.13;;;3.80;60.50;;;;;;5134398;27;20192;-89
2023/11/25 08:20:33;;;;;;;3.60;1.20;;;3.90;59.70;;;;;;5134057;27;20250;-89
2023/11/25 08:23:01;;;;;;;4.35;1.08;;;3.90;59.40;;;;;;5133913;27;20271;-89
2023/11/25 08:25:31;;;;;;;3.80;1.50;;;4.00;59.60;;;;;;5134031;27;20223;-91
2023/11/25 08:27:58;;;;;;;3.33;1.00;;;4.10;59.00;;;;;;5134272;27;20249;-89
2023/11/25 08:30:25;;;;;;;4.47;1.27;;;4.00;58.50;;;;;;5134119;27;20226;-89
2023/11/25 08:32:52;;;;;;;3.80;2.05;;;4.10;58.80;;;;;;5134285;27;20246;-89
2023/11/25 08:35:21;;;;;;;4.40;1.08;;;4.20;58.60;;;;;;5133702;27;20245;-90
2023/11/25 08:37:48;;;;;;;5.25;1.55;;;4.40;57.40;;;;;;5134021;27;20245;-89
2023/11/25 08:40:16;;;;;;;2.85;1.35;;;4.60;56.90;;;;;;5133928;27;20298;-89
2023/11/25 08:42:44;;;;;;;18.95;5.78;;;4.80;56.80;;;;;;5133997;27;20202;-90
2023/11/25 08:45:20;;;;;;;7.85;3.45;;;5.00;56.90;;;;;;5136346;27;20693;-90
2023/11/25 08:47:47;;;;;;;4.28;2.38;;;5.00;56.40;;;;;;5137906;27;20218;-90
2023/11/25 08:50:16;;;;;;;4.65;2.55;;;5.10;55.30;;;;;;5137323;27;20680;-88
2023/11/25 08:52:46;;;;;;;5.20;2.45;;;5.20;54.80;;;;;;5137602;27;20638;-90
2023/11/25 08:55:17;;;;;;;5.80;2.60;;;5.30;54.00;;;;;;5137926;27;20196;-89
2023/11/25 08:57:44;;;;;;;6.15;1.50;;;5.50;54.00;;;;;;5137314;27;20176;-88
2023/11/25 09:00:15;;;;;;;4.80;1.65;;;6.20;54.60;;;;;;5137523;27;20244;-88
2023/11/25 09:02:51;;;;;;;6.68;1.73;;;6.90;53.30;;;;;;5137468;27;20550;-88
2023/11/25 09:05:21;;;;;;;5.47;1.55;;;7.10;50.90;;;;;;5137166;27;20262;-90
2023/11/25 09:07:51;;;;;;;2.80;1.17;;;6.90;49.50;;;;;;5137412;27;20264;-88
2023/11/25 09:10:19;;;;;;;3.47;1.35;;;6.80;49.90;;;;;;5137307;27;20180;-88
2023/11/25 09:12:51;;;;;;;4.40;1.48;;;6.90;49.50;;;;;;5137424;27;20638;-91
2023/11/25 09:15:18;;;;;;;8.00;2.45;;;6.80;49.50;;;;;;5136971;27;20229;-90
2023/11/25 09:17:45;;;;;;;3.17;1.67;;;6.60;50.00;;;;;;5137156;27;20198;-90
2023/11/25 09:20:16;;;;;;;5.03;1.58;;;6.50;49.60;;;;;;5137091;27;20268;-90
2023/11/25 09:22:43;;;;;;;6.78;1.77;;;6.50;49.80;;;;;;5136830;27;20275;-89
2023/11/25 09:25:12;;;;;;;7.38;2.80;;;6.50;49.00;;;;;;5136780;27;20188;-89
2023/11/25 09:27:40;;;;;;;8.43;3.00;;;6.50;49.80;;;;;;5136779;27;20188;-90
2023/11/25 09:30:11;;;;;;;9.68;8.68;;;6.40;50.30;;;;;;5136964;27;20196;-90
2023/11/25 09:32:38;;;;;;;6.78;5.20;;;6.30;50.10;;;;;;5136982;27;20233;-90
2023/11/25 09:35:06;;;;;;;8.00;6.75;;;6.20;50.60;;;;;;5136645;27;20622;-90
2023/11/25 09:37:35;;;;;;;4.90;4.03;;;6.20;50.30;;;;;;5137475;27;20192;-89
2023/11/25 09:40:04;;;;;;;4.60;3.15;;;6.30;50.60;;;;;;5134343;27;20215;-90
2023/11/25 09:42:36;;;;;;;6.15;4.18;;;6.40;50.20;;;;;;5136171;27;20279;-89
2023/11/25 09:45:03;;;;;;;4.55;3.50;;;6.30;50.00;;;;;;5136090;27;20235;-89
2023/11/25 09:47:32;;;;;;;4.75;4.35;;;6.40;49.70;;;;;;5135733;27;20268;-89
2023/11/25 09:50:16;;;;;;;6.53;4.45;;;6.40;48.90;;;;;;5135964;27;20234;-90
2023/11/25 09:52:50;;;;;;;4.03;3.40;;;6.50;49.10;;;;;;5135541;27;20694;-88
2023/11/25 09:55:18;;;;;;;4.82;3.92;;;6.50;49.20;;;;;;5135611;27;20243;-88
2023/11/25 09:57:50;;;;;;;4.05;1.23;;;6.50;48.70;;;;;;5135437;27;20195;-88
2023/11/25 10:00:17;;;;;;;3.75;1.45;;;6.40;48.10;;;;;;5135215;27;20262;-88
2023/11/25 10:02:46;;;;;;;4.82;1.55;;;6.20;46.90;;;;;;5135358;27;20654;-88
2023/11/25 10:05:13;;;;;;;4.90;2.20;;;6.00;48.10;;;;;;5135285;27;20719;-88
2023/11/25 10:07:41;;;;;;;4.95;2.67;;;5.80;48.40;;;;;;5132273;27;20216;-90
2023/11/25 10:10:09;;;;;;;3.58;1.73;;;5.70;49.20;;;;;;5134779;27;20249;-92
2023/11/25 10:12:37;;;;;;;4.30;1.98;;;5.40;48.20;;;;;;5134970;27;20650;-91
2023/11/25 10:15:10;;;;;;;3.78;2.20;;;5.30;48.70;;;;;;5135177;27;20566;-90
2023/11/25 10:17:38;;;;;;;3.90;1.65;;;5.10;49.10;;;;;;5134382;27;20639;-91
2023/11/25 10:20:09;;;;;;;4.65;1.85;;;4.90;49.20;;;;;;5134745;27;20299;-91
2023/11/25 10:22:48;;;;;;;6.78;1.73;;;4.80;49.90;;;;;;5135015;27;20220;-92
2023/11/25 10:25:17;;;;;;;3.40;1.42;;;4.70;50.60;;;;;;5135131;27;20180;-91
2023/11/25 10:28:03;;;;;;;3.00;1.45;;;4.60;50.90;;;;;;5134895;27;20280;-91
2023/11/25 10:30:32;;;;;;;5.55;1.80;;;4.50;51.20;;;;;;5134680;27;20311;-91
2023/11/25 10:33:03;;;;;;;3.40;1.60;;;4.40;51.70;;;;;;5134293;27;20180;-90
2023/11/25 10:35:37;;;;;;;3.55;2.30;;;4.30;52.60;;;;;;5134694;27;20636;-91
2023/11/25 10:38:06;;;;;;;3.38;1.42;;;4.30;53.80;;;;;;5133624;27;20183;-91
2023/11/25 10:40:36;;;;;;;5.95;1.60;;;4.20;53.50;;;;;;5113687;28;20209;-92
2023/11/25 10:43:04;;;;;;;2.85;1.40;;;4.20;53.70;;;;;;5113020;28;20181;-90
2023/11/25 10:45:32;;;;;;;2.83;1.23;;;4.20;53.40;;;;;;5113829;28;20273;-91
2023/11/25 10:48:00;;;;;;;3.75;1.75;;;4.20;53.50;;;;;;5114158;28;20224;-91
2023/11/25 10:50:28;;;;;;;16.85;3.50;;;4.20;53.70;;;;;;5131556;27;20196;-91
2023/11/25 10:52:58;;;;;;;5.03;1.73;;;4.20;54.40;;;;;;5133932;27;20188;-91
2023/11/25 10:55:26;;;;;;;3.72;1.60;;;4.20;54.60;;;;;;5134022;27;20634;-91
2023/11/25 10:57:54;;;;;;;2.60;1.30;;;4.10;55.00;;;;;;5134351;27;20192;-91
2023/11/25 11:00:23;;;;;;;5.60;1.80;;;4.10;55.40;;;;;;5134061;27;20221;-91
2023/11/25 11:02:54;;;;;;;6.32;2.20;;;4.10;55.50;;;;;;5134212;27;20247;-92
2023/11/25 11:05:27;;;;;;;3.83;1.63;;;4.10;55.70;;;;;;5134252;27;20188;-92
2023/11/25 11:08:01;;;;;;;9.88;5.28;;;4.10;55.50;;;;;;5121909;27;20571;-90
2023/11/25 11:10:36;;;;;;;8.20;3.83;;;4.10;56.10;;;;;;5126581;27;20271;-91
2023/11/25 11:13:04;;;;;;;6.80;3.10;;;4.20;55.80;;;;;;5133656;27;20270;-90
2023/11/25 11:15:34;;;;;;;7.07;3.13;;;4.20;55.90;;;;;;5113568;28;20246;-90
2023/11/25 11:18:13;;;;;;;4.25;2.35;;;4.20;55.50;;;;;;5133498;27;20192;-91
2023/11/25 11:20:46;;;;;;;7.63;2.50;;;4.20;55.80;;;;;;5133773;27;20330;-90
2023/11/25 11:23:15;;;;;;;3.35;1.80;;;4.30;55.30;;;;;;5134179;27;20176;-91
2023/11/25 11:25:51;;;;;;;6.20;1.85;;;4.30;55.00;;;;;;5131565;27;20191;-90
2023/11/25 11:28:23;;;;;;;8.57;2.05;;;4.30;55.30;;;;;;5133670;27;20244;-89
2023/11/25 11:31:21;;;;;;;3.20;1.85;;;4.20;55.70;;;;;;5133757;27;20192;-89
2023/11/25 11:33:49;;;;;;;4.53;1.92;;;4.20;56.20;;;;;;5133247;27;20231;-90
2023/11/25 11:36:20;;;;;;;3.15;1.90;;;4.20;57.20;;;;;;5133457;27;20245;-89
2023/11/25 11:38:48;;;;;;;2.90;1.35;;;4.20;57.60;;;;;;5133828;27;20208;-89
2023/11/25 11:41:29;;;;;;;4.65;1.48;;;4.10;57.90;;;;;;5133407;27;20299;-90
2023/11/25 11:44:02;;;;;;;4.30;1.33;;;4.20;58.20;;;;;;5133316;27;20211;-90
2023/11/25 11:46:30;;;;;;;4.25;1.75;;;4.10;58.30;;;;;;5133188;27;20216;-90
2023/11/25 11:48:59;;;;;;;4.63;2.05;;;4.10;58.40;;;;;;5133518;27;20198;-90
2023/11/25 11:51:29;;;;;;;4.13;1.60;;;4.10;58.10;;;;;;5134411;28;20574;-90
2023/11/25 11:54:26;;;;;;;3.90;1.60;;;4.10;58.60;;;;;;5138933;27;20218;-90
2023/11/25 11:57:04;;;;;;;6.68;1.70;;;4.10;59.00;;;;;;5133769;28;20245;-90
2023/11/25 11:59:59;;;;;;;3.25;1.90;;;4.10;58.10;;;;;;5134814;28;20215;-90
2023/11/25 12:02:29;;;;;;;7.35;2.08;;;4.10;57.90;;;;;;5136194;27;20200;-91
2023/11/25 12:05:01;;;;;;;4.32;1.70;;;4.20;58.10;;;;;;5133237;28;20653;-89
2023/11/25 12:07:29;;;;;;;12.23;2.40;;;4.20;58.30;;;;;;5133707;28;20191;-90
2023/11/25 12:09:58;;;;;;;8.52;3.40;;;4.20;58.40;;;;;;5136186;28;20206;-91
2023/11/25 12:12:26;;;;;;;4.05;1.70;;;4.20;58.60;;;;;;5132970;28;20190;-90
2023/11/25 12:14:56;;;;;;;6.25;1.52;;;4.20;58.80;;;;;;5133379;27;20716;-90
2023/11/25 12:17:23;;;;;;;2.78;1.30;;;4.20;59.60;;;;;;5131715;27;20276;-91
2023/11/25 12:19:54;;;;;;;6.50;1.95;;;4.10;60.30;;;;;;5135211;27;20225;-90
2023/11/25 12:22:23;;;;;;;4.63;1.40;;;4.10;61.20;;;;;;5137582;27;20291;-91
2023/11/25 12:24:50;;;;;;;5.03;1.75;;;4.10;61.60;;;;;;5138144;27;20287;-91
2023/11/25 12:27:19;;;;;;;5.22;1.83;;;4.00;62.10;;;;;;5136726;27;20647;-90
2023/11/25 12:29:48;;;;;;;5.78;2.50;;;4.00;61.60;;;;;;5136495;27;20279;-90
2023/11/25 12:32:18;;;;;;;5.50;2.05;;;4.00;61.10;;;;;;5136656;27;20188;-91
2023/11/25 12:34:45;;;;;;;4.18;1.30;;;4.00;61.10;;;;;;5136939;27;20184;-90
2023/11/25 12:37:13;;;;;;;6.47;1.88;;;4.10;60.40;;;;;;5137173;27;20678;-90
2023/11/25 12:39:41;;;;;;;3.75;2.05;;;4.10;59.90;;;;;;5137171;27;20202;-91
2023/11/25 12:42:08;;;;;;;4.40;1.70;;;4.10;60.20;;;;;;5136299;27;20212;-90
2023/11/25 12:44:50;;;;;;;4.13;1.92;;;4.10;60.20;;;;;;5136888;27;20188;-91
2023/11/25 12:47:17;;;;;;;4.65;1.52;;;4.10;60.60;;;;;;5136977;27;20260;-90
2023/11/25 12:49:51;;;;;;;7.70;2.20;;;4.20;59.50;;;;;;5136130;27;20279;-90
2023/11/25 12:52:24;;;;;;;3.92;2.13;;;4.20;58.70;;;;;;5136628;27;20187;-90
2023/11/25 12:54:52;;;;;;;7.43;1.60;;;4.30;58.70;;;;;;5136118;27;20184;-88
2023/11/25 12:57:29;;;;;;;8.23;2.40;;;4.30;58.70;;;;;;5135550;27;20227;-89
2023/11/25 12:59:57;;;;;;;4.30;1.90;;;4.30;58.30;;;;;;5134640;27;20172;-88
2023/11/25 13:02:25;;;;;;;5.43;2.03;;;4.40;58.30;;;;;;5135626;27;20622;-89
2023/11/25 13:04:56;;;;;;;3.60;1.85;;;4.50;58.20;;;;;;5136819;27;20198;-91
2023/11/25 13:07:30;;;;;;;5.32;1.63;;;4.60;57.40;;;;;;5136820;27;20181;-89
2023/11/25 13:09:59;;;;;;;4.30;1.58;;;4.70;57.40;;;;;;5136229;27;20610;-89